createdAt,value
2022-12-18T00:01:25.643Z,95078.28
2022-12-18T00:03:53.447Z,95067.94
2022-12-18T00:06:21.091Z,95071.91
2022-12-18T00:08:48.674Z,95066.72
2022-12-18T00:11:17.675Z,95062.63
2022-12-18T00:13:44.561Z,95066.72
2022-12-18T00:16:16.940Z,95068.34
2022-12-18T00:18:43.919Z,95075.81
2022-12-18T00:21:12.800Z,95061.94
2022-12-18T00:23:40.899Z,95071.78
2022-12-18T00:26:11.747Z,95079.53
2022-12-18T00:28:38.283Z,95072.34
2022-12-18T00:31:07.704Z,95089.84
2022-12-18T00:33:35.270Z,95087.91
2022-12-18T00:36:07.659Z,95092.88
2022-12-18T00:38:35.025Z,95091.56
2022-12-18T00:41:02.020Z,95094.00
2022-12-18T00:43:28.882Z,95096.44
2022-12-18T00:45:55.644Z,95093.28
2022-12-18T00:48:23.051Z,95094.94
2022-12-18T00:50:50.208Z,95089.38
2022-12-18T00:53:17.060Z,95086.13
2022-12-18T00:55:43.926Z,95096.50
2022-12-18T00:58:11.496Z,95095.66
2022-12-18T01:00:38.998Z,95101.75
2022-12-18T01:03:06.215Z,95106.38
2022-12-18T01:05:32.924Z,95105.81
2022-12-18T01:08:00.329Z,95104.22
2022-12-18T01:10:26.923Z,95097.00
2022-12-18T01:12:57.853Z,95097.88
2022-12-18T01:15:24.349Z,95089.13
2022-12-18T01:17:53.583Z,95097.94
2022-12-18T01:20:20.572Z,95100.59
2022-12-18T01:22:47.383Z,95099.56
2022-12-18T01:25:13.877Z,95100.13
2022-12-18T01:27:40.532Z,95101.75
2022-12-18T01:30:07.758Z,95102.81
2022-12-18T01:32:34.592Z,95097.03
2022-12-18T01:35:04.940Z,95098.91
2022-12-18T01:37:31.465Z,95106.66
2022-12-18T01:39:58.019Z,95097.13
2022-12-18T01:42:24.585Z,95093.38
2022-12-18T01:44:59.998Z,95094.22
2022-12-18T01:47:43.738Z,95091.00
2022-12-18T01:50:46.324Z,95106.47
2022-12-18T01:53:16.754Z,95101.69
2022-12-18T01:55:51.241Z,95110.50
2022-12-18T01:58:18.646Z,95111.28
2022-12-18T02:00:45.541Z,95111.56
2022-12-18T02:03:12.864Z,95113.44
2022-12-18T02:05:39.456Z,95108.41
2022-12-18T02:08:16.204Z,95110.53
2022-12-18T02:10:55.227Z,95104.69
2022-12-18T02:13:44.823Z,95112.41
2022-12-18T02:16:42.166Z,95108.16
2022-12-18T02:19:37.055Z,95110.81
2022-12-18T02:22:32.330Z,95114.03
2022-12-18T02:25:17.000Z,95111.66
2022-12-18T02:27:47.456Z,95106.56
2022-12-18T02:30:15.495Z,95120.16
2022-12-18T02:32:47.255Z,95109.47
2022-12-18T02:35:20.137Z,95106.56
2022-12-18T02:37:48.832Z,95114.81
2022-12-18T02:40:18.072Z,95104.97
2022-12-18T02:42:44.986Z,95105.53
2022-12-18T02:45:15.227Z,95099.91
2022-12-18T02:47:44.515Z,95099.91
2022-12-18T02:50:36.955Z,95101.78
2022-12-18T02:53:37.538Z,95097.03
2022-12-18T02:56:22.565Z,95091.72
2022-12-18T02:59:01.626Z,95093.81
2022-12-18T03:01:44.125Z,95088.78
2022-12-18T03:04:16.105Z,95089.28
2022-12-18T03:06:52.703Z,95089.56
2022-12-18T03:09:25.412Z,95086.34
2022-12-18T03:12:24.606Z,95095.09
2022-12-18T03:15:05.025Z,95092.72
2022-12-18T03:17:33.757Z,95091.94
2022-12-18T03:20:08.434Z,95097.22
2022-12-18T03:22:38.518Z,95096.47
2022-12-18T03:25:09.839Z,95105.25
2022-12-18T03:27:43.163Z,95099.13
2022-12-18T03:30:13.797Z,95098.88
2022-12-18T03:32:49.887Z,95096.75
2022-12-18T03:35:24.155Z,95092.22
2022-12-18T03:37:51.052Z,95088.78
2022-12-18T03:40:18.216Z,95093.84
2022-12-18T03:42:56.141Z,95090.91
2022-12-18T03:45:38.305Z,95100.78
2022-12-18T03:48:30.025Z,95089.59
2022-12-18T03:51:10.031Z,95093.28
2022-12-18T03:54:10.870Z,95101.25
2022-12-18T03:56:48.418Z,95094.34
2022-12-18T03:59:17.545Z,95100.19
2022-12-18T04:01:48.613Z,95098.63
2022-12-18T04:04:18.700Z,95092.22
2022-12-18T04:06:47.898Z,95089.25
2022-12-18T04:09:15.633Z,95095.59
2022-12-18T04:11:47.508Z,95102.41
2022-12-18T04:14:17.877Z,95104.78
2022-12-18T04:16:45.301Z,95109.31
2022-12-18T04:19:15.258Z,95099.66
2022-12-18T04:21:43.978Z,95105.47
2022-12-18T04:24:12.448Z,95103.00
2022-12-18T04:26:44.957Z,95101.88
2022-12-18T04:29:22.657Z,95103.72
2022-12-18T04:31:49.552Z,95106.88
2022-12-18T04:34:16.865Z,95100.50
2022-12-18T04:36:49.452Z,95098.63
2022-12-18T04:39:16.618Z,95096.66
2022-12-18T04:41:43.701Z,95097.72
2022-12-18T04:44:10.246Z,95085.19
2022-12-18T04:46:36.809Z,95091.53
2022-12-18T04:49:03.373Z,95090.75
2022-12-18T04:51:29.895Z,95086.72
2022-12-18T04:53:56.426Z,95094.47
2022-12-18T04:56:23.503Z,95092.78
2022-12-18T04:58:50.353Z,95090.38
2022-12-18T05:01:18.714Z,95094.06
2022-12-18T05:03:45.766Z,95095.34
2022-12-18T05:06:12.706Z,95092.94
2022-12-18T05:08:39.468Z,95091.06
2022-12-18T05:11:07.458Z,95101.41
2022-12-18T05:13:34.265Z,95094.47
2022-12-18T05:16:00.901Z,95090.44
2022-12-18T05:18:27.967Z,95091.19
2022-12-18T05:20:55.429Z,95091.19
2022-12-18T05:23:23.418Z,95095.72
2022-12-18T05:25:53.542Z,95086.38
2022-12-18T05:28:20.923Z,95088.06
2022-12-18T05:30:55.895Z,95099.81
2022-12-18T05:33:24.674Z,95093.97
2022-12-18T05:35:52.844Z,95089.66
2022-12-18T05:38:20.787Z,95085.59
2022-12-18T05:40:49.046Z,95089.81
2022-12-18T05:43:20.989Z,95092.47
2022-12-18T05:45:48.962Z,95084.69
2022-12-18T05:48:16.548Z,95096.09
2022-12-18T05:50:48.081Z,95089.69
2022-12-18T05:53:20.379Z,95092.78
2022-12-18T05:55:47.475Z,95097.81
2022-12-18T05:58:15.386Z,95098.47
2022-12-18T06:00:46.832Z,95097.72
2022-12-18T06:03:14.287Z,95105.63
2022-12-18T06:05:43.432Z,95108.75
2022-12-18T06:08:11.473Z,95107.28
2022-12-18T06:10:38.520Z,95104.38
2022-12-18T06:13:07.095Z,95100.78
2022-12-18T06:15:34.221Z,95105.16
2022-12-18T06:18:01.738Z,95111.03
2022-12-18T06:20:33.215Z,95108.56
2022-12-18T06:23:00.395Z,95120.69
2022-12-18T06:25:27.102Z,95120.13
2022-12-18T06:27:53.643Z,95123.78
2022-12-18T06:30:20.514Z,95125.91
2022-12-18T06:32:53.078Z,95128.44
2022-12-18T06:35:23.137Z,95131.94
2022-12-18T06:37:49.633Z,95136.38
2022-12-18T06:40:16.257Z,95140.47
2022-12-18T06:42:43.022Z,95147.19
2022-12-18T06:45:10.000Z,95146.47
2022-12-18T06:47:36.591Z,95155.47
2022-12-18T06:50:03.732Z,95153.06
2022-12-18T06:52:32.920Z,95159.16
2022-12-18T06:54:59.426Z,95155.97
2022-12-18T06:57:25.968Z,95169.34
2022-12-18T06:59:52.474Z,95170.72
2022-12-18T07:02:19.185Z,95178.91
2022-12-18T07:04:47.775Z,95175.94
2022-12-18T07:07:15.254Z,95179.00
2022-12-18T07:09:41.782Z,95172.59
2022-12-18T07:12:08.940Z,95181.16
2022-12-18T07:14:35.460Z,95183.63
2022-12-18T07:17:02.576Z,95180.44
2022-12-18T07:19:30.426Z,95174.41
2022-12-18T07:21:57.597Z,95184.28
2022-12-18T07:24:24.236Z,95182.94
2022-12-18T07:26:50.802Z,95179.31
2022-12-18T07:29:17.323Z,95180.34
2022-12-18T07:31:44.102Z,95181.88
2022-12-18T07:34:12.649Z,95181.88
2022-12-18T07:36:39.501Z,95194.63
2022-12-18T07:39:06.085Z,95189.25
2022-12-18T07:41:32.692Z,95195.28
2022-12-18T07:44:11.160Z,95195.59
2022-12-18T07:46:37.779Z,95203.38
2022-12-18T07:49:04.360Z,95210.28
2022-12-18T07:51:31.612Z,95203.22
2022-12-18T07:53:58.299Z,95209.38
2022-12-18T07:56:29.524Z,95204.81
2022-12-18T07:58:57.354Z,95204.97
2022-12-18T08:01:24.209Z,95208.91
2022-12-18T08:03:52.162Z,95212.53
2022-12-18T08:06:19.517Z,95208.50
2022-12-18T08:08:55.891Z,95211.63
2022-12-18T08:11:23.566Z,95220.03
2022-12-18T08:13:50.183Z,95220.34
2022-12-18T08:16:16.776Z,95216.13
2022-12-18T08:18:43.708Z,95222.09
2022-12-18T08:21:15.807Z,95220.50
2022-12-18T08:23:43.745Z,95222.25
2022-12-18T08:26:12.089Z,95226.88
2022-12-18T08:28:38.892Z,95225.09
2022-12-18T08:31:05.854Z,95225.56
2022-12-18T08:33:33.482Z,95230.38
2022-12-18T08:36:01.168Z,95228.13
2022-12-18T08:38:27.769Z,95224.56
2022-12-18T08:41:03.576Z,95215.69
2022-12-18T08:43:49.121Z,95212.44
2022-12-18T08:46:15.662Z,95213.34
2022-12-18T08:48:43.051Z,95215.66
2022-12-18T08:51:12.698Z,95204.34
2022-12-18T08:53:40.178Z,95198.22
2022-12-18T08:56:08.907Z,95194.38
2022-12-18T08:58:35.470Z,95193.13
2022-12-18T09:01:07.160Z,95189.81
2022-12-18T09:03:34.146Z,95192.66
2022-12-18T09:06:00.926Z,95186.09
2022-12-18T09:08:28.404Z,95189.38
2022-12-18T09:10:57.549Z,95184.41
2022-12-18T09:13:24.299Z,95193.75
2022-12-18T09:15:53.294Z,95195.59
2022-12-18T09:18:21.692Z,95196.16
2022-12-18T09:20:48.517Z,95192.72
2022-12-18T09:23:15.552Z,95194.31
2022-12-18T09:25:42.185Z,95196.44
2022-12-18T09:28:17.034Z,95194.06
2022-12-18T09:30:46.783Z,95200.69
2022-12-18T09:33:13.700Z,95193.78
2022-12-18T09:35:42.277Z,95200.97
2022-12-18T09:38:13.146Z,95190.56
2022-12-18T09:40:46.037Z,95193.75
2022-12-18T09:43:45.254Z,95195.38
2022-12-18T09:46:28.160Z,95190.00
2022-12-18T09:49:00.481Z,95185.69
2022-12-18T09:51:33.516Z,95185.66
2022-12-18T09:54:04.579Z,95182.63
2022-12-18T09:56:38.562Z,95189.78
2022-12-18T09:59:06.284Z,95191.13
2022-12-18T10:01:43.256Z,95194.03
2022-12-18T10:04:11.288Z,95194.50
2022-12-18T10:06:49.585Z,95197.13
2022-12-18T10:10:06.996Z,95193.84
2022-12-18T10:12:39.586Z,95198.78
2022-12-18T10:15:16.916Z,95205.31
2022-12-18T10:17:53.091Z,95197.09
2022-12-18T10:20:46.316Z,95202.09
2022-12-18T10:23:29.271Z,95204.84
2022-12-18T10:26:26.745Z,95196.44
2022-12-18T10:28:55.340Z,95199.28
2022-12-18T10:31:24.728Z,95196.28
2022-12-18T10:33:52.433Z,95192.22
2022-12-18T10:36:19.185Z,95185.63
2022-12-18T10:38:45.767Z,95188.06
2022-12-18T10:41:18.347Z,95184.63
2022-12-18T10:43:45.247Z,95185.50
2022-12-18T10:46:11.793Z,95175.34
2022-12-18T10:48:48.467Z,95170.59
2022-12-18T10:51:21.196Z,95172.88
2022-12-18T10:53:53.909Z,95166.59
2022-12-18T10:56:22.141Z,95165.91
2022-12-18T10:59:04.935Z,95167.53
2022-12-18T11:01:49.527Z,95155.78
2022-12-18T11:04:20.112Z,95149.91
2022-12-18T11:07:07.804Z,95159.28
2022-12-18T11:09:38.014Z,95161.66
2022-12-18T11:12:23.501Z,95151.28
2022-12-18T11:14:52.875Z,95150.59
2022-12-18T11:17:28.496Z,95152.25
2022-12-18T11:20:00.549Z,95138.28
2022-12-18T11:22:32.376Z,95145.94
2022-12-18T11:28:04.282Z,95152.59
2022-12-18T11:30:33.489Z,95150.09
2022-12-18T11:33:21.874Z,95149.53
2022-12-18T11:35:53.771Z,95149.22
2022-12-18T11:38:36.814Z,95154.47
2022-12-18T11:41:45.679Z,95153.22
2022-12-18T11:44:19.334Z,95165.22
2022-12-18T11:46:52.577Z,95164.34
2022-12-18T11:49:37.047Z,95150.63
2022-12-18T11:52:22.214Z,95151.59
2022-12-18T11:54:52.757Z,95147.69
2022-12-18T11:57:43.285Z,95141.13
2022-12-18T12:00:23.496Z,95134.69
2022-12-18T12:03:10.744Z,95134.06
2022-12-18T12:05:51.039Z,95123.66
2022-12-18T12:08:30.682Z,95136.25
2022-12-18T12:11:11.244Z,95128.69
2022-12-18T12:14:03.646Z,95132.31
2022-12-18T12:16:47.864Z,95130.44
2022-12-18T12:19:17.197Z,95126.00
2022-12-18T12:21:53.554Z,95119.94
2022-12-18T12:24:49.163Z,95117.75
2022-12-18T12:27:49.281Z,95127.09
2022-12-18T12:30:40.623Z,95120.94
2022-12-18T12:33:07.224Z,95121.09
2022-12-18T12:36:01.446Z,95120.72
2022-12-18T12:38:42.329Z,95131.75
2022-12-18T12:41:34.440Z,95126.81
2022-12-18T12:44:08.869Z,95138.41
2022-12-18T12:46:41.362Z,95127.19
2022-12-18T12:49:16.497Z,95130.31
2022-12-18T12:51:48.702Z,95131.63
2022-12-18T12:54:22.947Z,95137.78
2022-12-18T12:56:54.741Z,95136.03
2022-12-18T12:59:31.868Z,95130.97
2022-12-18T13:02:07.596Z,95129.97
2022-12-18T13:04:46.602Z,95141.25
2022-12-18T13:07:21.554Z,95123.50
2022-12-18T13:10:20.855Z,95119.59
2022-12-18T13:13:00.737Z,95123.38
2022-12-18T13:15:39.735Z,95121.00
2022-12-18T13:18:06.646Z,95128.63
2022-12-18T13:20:40.965Z,95122.88
2022-12-18T13:23:29.397Z,95122.91
2022-12-18T13:26:01.391Z,95123.72
2022-12-18T13:28:37.737Z,95128.00
2022-12-18T13:31:04.744Z,95126.59
2022-12-18T13:34:02.073Z,95116.75
2022-12-18T13:36:30.315Z,95120.41
2022-12-18T13:39:28.884Z,95129.69
2022-12-18T13:42:06.081Z,95123.69
2022-12-18T13:44:40.828Z,95117.03
2022-12-18T13:47:26.647Z,95111.97
2022-12-18T13:49:53.896Z,95115.25
2022-12-18T13:52:25.734Z,95110.94
2022-12-18T13:54:56.353Z,95109.66
2022-12-18T13:57:33.638Z,95114.41
2022-12-18T14:00:26.210Z,95113.94
2022-12-18T14:02:52.971Z,95116.94
2022-12-18T14:05:23.658Z,95124.34
2022-12-18T14:07:51.536Z,95115.91
2022-12-18T14:10:45.585Z,95123.56
2022-12-18T14:13:09.899Z,95123.53
2022-12-18T14:15:43.671Z,95120.81
2022-12-18T14:18:16.479Z,95116.88
2022-12-18T14:20:49.220Z,95113.09
2022-12-18T14:23:36.959Z,95112.41
2022-12-18T14:26:21.221Z,95119.72
2022-12-18T14:28:48.263Z,95126.31
2022-12-18T14:31:33.049Z,95127.84
2022-12-18T14:33:59.653Z,95130.72
2022-12-18T14:36:28.631Z,95126.16
2022-12-18T14:38:57.531Z,95122.78
2022-12-18T14:41:25.465Z,95129.75
2022-12-18T14:43:54.854Z,95140.59
2022-12-18T14:46:33.582Z,95139.69
2022-12-18T14:49:02.973Z,95143.16
2022-12-18T14:51:32.505Z,95147.50
2022-12-18T14:54:02.430Z,95137.66
2022-12-18T14:56:45.321Z,95144.94
2022-12-18T14:59:24.665Z,95138.44
2022-12-18T15:02:23.595Z,95137.78
2022-12-18T15:05:13.453Z,95139.47
2022-12-18T15:07:46.384Z,95140.44
2022-12-18T15:10:16.595Z,95143.78
2022-12-18T15:12:45.554Z,95134.50
2022-12-18T15:15:34.138Z,95140.59
2022-12-18T15:18:09.786Z,95140.91
2022-12-18T15:21:00.772Z,95138.91
2022-12-18T15:23:29.033Z,95146.31
2022-12-18T15:26:00.684Z,95150.53
2022-12-18T15:28:33.241Z,95149.28
2022-12-18T15:31:06.445Z,95149.91
2022-12-18T15:33:36.646Z,95151.53
2022-12-18T15:36:06.082Z,95145.88
2022-12-18T15:38:33.152Z,95159.00
2022-12-18T15:40:59.791Z,95159.03
2022-12-18T15:43:36.231Z,95155.50
2022-12-18T15:46:32.348Z,95164.91
2022-12-18T15:49:02.077Z,95159.34
2022-12-18T15:51:33.043Z,95166.59
2022-12-18T15:54:04.590Z,95171.31
2022-12-18T15:56:50.497Z,95177.09
2022-12-18T15:59:19.692Z,95171.22
2022-12-18T16:01:48.989Z,95175.72
2022-12-18T16:04:18.761Z,95173.19
2022-12-18T16:07:13.372Z,95177.69
2022-12-18T16:09:31.906Z,95179.63
2022-12-18T16:11:59.525Z,95176.19
2022-12-18T16:14:30.090Z,95169.28
2022-12-18T16:17:02.801Z,95164.81
2022-12-18T16:19:30.694Z,95173.66
2022-12-18T16:21:58.952Z,95171.66
2022-12-18T16:24:28.965Z,95169.28
2022-12-18T16:26:57.621Z,95161.50
2022-12-18T16:29:28.067Z,95165.47
2022-12-18T16:31:59.965Z,95166.47
2022-12-18T16:34:29.482Z,95165.19
2022-12-18T16:37:08.207Z,95162.44
2022-12-18T16:39:36.024Z,95171.72
2022-12-18T16:42:13.391Z,95170.41
2022-12-18T16:44:39.937Z,95166.72
2022-12-18T16:47:06.740Z,95169.09
2022-12-18T16:49:36.080Z,95169.28
2022-12-18T16:52:03.830Z,95170.28
2022-12-18T16:54:30.504Z,95170.34
2022-12-18T16:56:58.008Z,95160.13
2022-12-18T16:59:26.697Z,95169.59
2022-12-18T17:01:53.522Z,95159.13
2022-12-18T17:04:20.191Z,95163.31
2022-12-18T17:06:51.767Z,95165.13
2022-12-18T17:09:28.401Z,95164.28
2022-12-18T17:11:55.262Z,95157.75
2022-12-18T17:14:24.384Z,95158.59
2022-12-18T17:17:19.162Z,95158.16
2022-12-18T17:19:38.766Z,95156.22
2022-12-18T17:22:05.462Z,95157.59
2022-12-18T17:24:35.244Z,95153.19
2022-12-18T17:27:03.156Z,95153.69
2022-12-18T17:29:30.157Z,95151.97
2022-12-18T17:31:57.288Z,95156.38
2022-12-18T17:34:24.349Z,95152.63
2022-12-18T17:36:51.015Z,95151.00
2022-12-18T17:39:19.922Z,95150.59
2022-12-18T17:41:47.726Z,95160.81
2022-12-18T17:44:14.586Z,95160.13
2022-12-18T17:46:41.209Z,95148.41
2022-12-18T17:49:07.960Z,95142.97
2022-12-18T17:51:34.510Z,95143.28
2022-12-18T17:54:01.229Z,95153.13
2022-12-18T17:56:28.578Z,95144.00
2022-12-18T17:58:55.429Z,95158.34
2022-12-18T18:01:25.000Z,95153.00
2022-12-18T18:03:54.146Z,95145.59
2022-12-18T18:06:21.296Z,95155.56
2022-12-18T18:08:48.394Z,95143.03
2022-12-18T18:11:36.962Z,95145.56
2022-12-18T18:14:07.082Z,95147.19
2022-12-18T18:16:45.362Z,95137.81
2022-12-18T18:19:15.983Z,95152.56
2022-12-18T18:21:45.758Z,95150.13
2022-12-18T18:24:16.324Z,95148.66
2022-12-18T18:26:43.192Z,95151.34
2022-12-18T18:29:15.125Z,95155.88
2022-12-18T18:31:41.891Z,95153.22
2022-12-18T18:34:13.734Z,95153.94
2022-12-18T18:36:40.130Z,95150.13
2022-12-18T18:39:07.131Z,95156.00
2022-12-18T18:41:35.647Z,95155.69
2022-12-18T18:44:02.789Z,95154.84
2022-12-18T18:46:29.291Z,95153.47
2022-12-18T18:48:56.146Z,95162.03
2022-12-18T18:51:23.004Z,95161.00
2022-12-18T18:53:52.180Z,95154.19
2022-12-18T18:59:08.324Z,95158.78
2022-12-18T19:01:35.108Z,95151.38
2022-12-18T19:04:03.138Z,95153.97
2022-12-18T19:06:30.074Z,95156.09
2022-12-18T19:08:58.865Z,95147.31
2022-12-18T19:11:44.619Z,95146.81
2022-12-18T19:14:14.231Z,95126.44
2022-12-18T19:16:41.555Z,95121.63
2022-12-18T19:19:08.503Z,95119.28
2022-12-18T19:21:37.297Z,95110.91
2022-12-18T19:24:06.655Z,95114.53
2022-12-18T19:26:36.508Z,95116.34
2022-12-18T19:29:08.632Z,95109.59
2022-12-18T19:31:37.389Z,95111.25
2022-12-18T19:34:06.907Z,95110.47
2022-12-18T19:36:37.120Z,95105.63
2022-12-18T19:39:12.140Z,95104.03
2022-12-18T19:41:38.935Z,95096.28
2022-12-18T19:44:07.677Z,95098.38
2022-12-18T19:46:34.927Z,95094.47
2022-12-18T19:49:02.235Z,95100.31
2022-12-18T19:51:30.948Z,95103.16
2022-12-18T19:54:01.461Z,95088.31
2022-12-18T19:56:31.363Z,95095.25
2022-12-18T19:58:58.631Z,95093.44
2022-12-18T20:01:26.641Z,95088.00
2022-12-18T20:03:55.282Z,95082.88
2022-12-18T20:06:35.207Z,95090.03
2022-12-18T20:09:07.101Z,95078.88
2022-12-18T20:11:38.825Z,95066.44
2022-12-18T20:14:12.655Z,95077.34
2022-12-18T20:16:40.407Z,95106.19
2022-12-18T20:19:07.871Z,95099.44
2022-12-18T20:21:34.410Z,95100.53
2022-12-18T20:24:01.971Z,95092.44
2022-12-18T20:26:28.563Z,95089.16
2022-12-18T20:28:55.546Z,95083.50
2022-12-18T20:31:22.309Z,95076.03
2022-12-18T20:33:59.581Z,95075.94
2022-12-18T20:36:27.114Z,95080.63
2022-12-18T20:38:58.180Z,95080.09
2022-12-18T20:41:27.360Z,95083.31
2022-12-18T20:44:04.646Z,95085.06
2022-12-18T20:46:33.945Z,95081.09
2022-12-18T20:49:03.487Z,95079.34
2022-12-18T20:51:31.619Z,95091.88
2022-12-18T20:53:59.619Z,95091.25
2022-12-18T20:56:30.533Z,95084.41
2022-12-18T20:58:58.724Z,95089.34
2022-12-18T21:01:26.779Z,95084.38
2022-12-18T21:03:54.379Z,95086.63
2022-12-18T21:06:24.888Z,95082.63
2022-12-18T21:08:51.576Z,95071.34
2022-12-18T21:11:39.353Z,95073.94
2022-12-18T21:14:19.152Z,95071.97
2022-12-18T21:16:46.362Z,95069.19
2022-12-18T21:19:24.342Z,95066.47
2022-12-18T21:21:58.766Z,95074.09
2022-12-18T21:24:25.656Z,95076.09
2022-12-18T21:26:53.912Z,95075.38
2022-12-18T21:29:23.497Z,95075.72
2022-12-18T21:31:51.850Z,95075.13
2022-12-18T21:34:21.286Z,95071.63
2022-12-18T21:36:49.553Z,95075.72
2022-12-18T21:39:16.998Z,95067.97
2022-12-18T21:42:03.917Z,95067.88
2022-12-18T21:44:30.884Z,95064.91
2022-12-18T21:47:15.135Z,95062.34
2022-12-18T21:49:48.664Z,95055.47
2022-12-18T21:52:15.176Z,95061.53
2022-12-18T21:54:41.713Z,95057.28
2022-12-18T21:57:08.659Z,95062.56
2022-12-18T21:59:37.470Z,95053.47
2022-12-18T22:02:11.500Z,95059.34
2022-12-18T22:04:38.066Z,95062.66
2022-12-18T22:07:06.162Z,95061.75
2022-12-18T22:09:32.906Z,95049.44
2022-12-18T22:11:59.533Z,95059.41
2022-12-18T22:14:26.092Z,95053.81
2022-12-18T22:16:52.726Z,95053.16
2022-12-18T22:19:20.213Z,95059.59
2022-12-18T22:21:48.611Z,95059.19
2022-12-18T22:24:23.742Z,95059.09
2022-12-18T22:26:52.892Z,95063.56
2022-12-18T22:29:44.882Z,95071.22
2022-12-18T22:32:16.259Z,95077.34
2022-12-18T22:34:43.593Z,95076.38
2022-12-18T22:37:12.007Z,95082.44
2022-12-18T22:39:38.832Z,95083.06
2022-12-18T22:42:06.246Z,95092.97
2022-12-18T22:44:32.747Z,95081.56
2022-12-18T22:47:06.379Z,95096.84
2022-12-18T22:49:35.152Z,95094.59
2022-12-18T22:52:03.947Z,95081.38
2022-12-18T22:54:30.709Z,95097.97
2022-12-18T22:56:57.570Z,95088.34
2022-12-18T22:59:24.641Z,95086.94
2022-12-18T23:01:54.542Z,95092.03
2022-12-18T23:04:31.191Z,95090.03
2022-12-18T23:07:04.540Z,95098.78
2022-12-18T23:09:31.230Z,95095.31
2022-12-18T23:11:57.716Z,95086.84
2022-12-18T23:14:24.238Z,95092.53
2022-12-18T23:16:50.792Z,95092.44
2022-12-18T23:19:19.957Z,95097.00
2022-12-18T23:21:46.522Z,95095.63
2022-12-18T23:24:13.454Z,95091.34
2022-12-18T23:26:40.014Z,95085.97
2022-12-18T23:29:07.304Z,95094.34
2022-12-18T23:31:36.409Z,95087.94
2022-12-18T23:34:03.873Z,95082.00
2022-12-18T23:36:32.299Z,95086.34
2022-12-18T23:39:12.346Z,95087.25
2022-12-18T23:41:41.908Z,95086.06
2022-12-18T23:44:09.988Z,95094.03
2022-12-18T23:46:37.547Z,95085.97
2022-12-18T23:49:05.841Z,95081.50
2022-12-18T23:51:33.157Z,95085.38
2022-12-18T23:54:02.239Z,95075.72
2022-12-18T23:56:30.075Z,95069.38
2022-12-18T23:58:57.349Z,95076.03
